This is the latest recevied weather packets stored in our database for station/object W4NDF-13. If no packets are shown the sender has not sent any weather packets the latest 10 day(s).
| Time | Temp. | Humidity | Pressure | Rain* | Wind** | Luminosity | Snow |
|---|---|---|---|---|---|---|---|
| 1778089762 | 28.89° C | 80% | 1014.8 hPa | 0 mm | - | 422 W/m² | - |
| 1778089460 | 28.89° C | 82% | 1015.2 hPa | 0 mm | - | 396 W/m² | - |
| 1778089157 | 28.33° C | 83% | 1015.2 hPa | 0 mm | - | 371 W/m² | - |
| 1778088854 | 28.33° C | 83% | 1015.3 hPa | 0 mm | - | 385 W/m² | - |
| 1778088551 | 28.33° C | 83% | 1015.2 hPa | 0 mm | - | 396 W/m² | - |
| 1778088248 | 27.78° C | 86% | 1015.4 hPa | 0 mm | - | 437 W/m² | - |
| 1778087945 | 27.78° C | 87% | 1015.4 hPa | 0 mm | - | 359 W/m² | - |
| 1778087642 | 27.22° C | 89% | 1015.3 hPa | 0 mm | - | 341 W/m² | - |
| 1778087340 | 27.22° C | 89% | 1015.3 hPa | 0 mm | - | 285 W/m² | - |
| 1778087036 | 26.67° C | 90% | 1015.5 hPa | 0 mm | - | 391 W/m² | - |
| 1778086735 | 27.22° C | 88% | 1015.5 hPa | 0 mm | - | 132 W/m² | - |
| 1778086433 | 27.22° C | 88% | 1015.3 hPa | 0 mm | - | 133 W/m² | - |
| 1778086129 | 27.22° C | 89% | 1015.5 hPa | 0 mm | - | 164 W/m² | - |
| 1778085825 | 27.22° C | 87% | 1015.3 hPa | 0 mm | - | 109 W/m² | - |
| 1778085524 | 27.22° C | 86% | 1015.3 hPa | 0 mm | - | 115 W/m² | - |
| 1778085218 | 27.22° C | 86% | 1015.3 hPa | 0 mm | - | 138 W/m² | - |
| 1778084913 | 27.22° C | 87% | 1015.3 hPa | 0 mm | - | 99 W/m² | - |
| 1778084612 | 27.78° C | 86% | 1015 hPa | 0 mm | - | 178 W/m² | - |
| 1778084309 | 27.78° C | 85% | 1015 hPa | 0 mm | - | 145 W/m² | - |
| 1778084006 | 27.78° C | 85% | 1014.8 hPa | 0 mm | - | 243 W/m² | - |
| 1778083704 | 27.78° C | 86% | 1014.9 hPa | 0 mm | - | 204 W/m² | - |
| 1778083400 | 27.78° C | 86% | 1015 hPa | 0 mm | - | 165 W/m² | - |
| 1778083099 | 27.78° C | 85% | 1014.7 hPa | 0 mm | - | 190 W/m² | - |
| 1778082795 | 27.78° C | 86% | 1014.9 hPa | 0 mm | - | 264 W/m² | - |
| 1778081667 | 26.67° C | 89% | 1014.7 hPa | 0 mm | - | 376 W/m² | - |
* Rain latest hour (hover to see other rain measurements)
** Current wind speed in m/s (hover to see current wind gust speed)